Latest Weather Observations for Longreach

IDQ60801

Issued at 2:02 pm EST Monday 26 January 2015 (issued every 30 minutes, with the page automatically refreshed every 10 minutes)

About weather observations | Map of weather stations | Latest weather observations for QLD | Other Formats
Station Details ID: 036031 Name: LONGREACH AERO Lat: -23.44 Lon: 144.28 Height: 192.2 m
Data from the previous 72 hours. | See also: Recent months at Longreach
Date/Time
EST
Temp
°C
App
Temp
°C
Dew
Point
Rel
Hum
%
Delta-T
°C
Wind Press
QNH
hPa
Press
MSL
hPa
Rain
since 9 am
mm
Dir
 
Spd
km/h
Gust
km/h
Spd
kts
Gust
kts
26/01:30pm 39.5 33.0 -2.1 7 20.7 W 22 37 12 20 1004.0 - 0.0
26/01:00pm 39.5 32.4 -1.1 8 20.4 SW 26 43 14 23 1004.6 - 0.0
26/12:30pm 39.2 34.0 -2.6 7 20.5 W 15 28 8 15 1004.8 - 0.0
26/11:30am 36.8 32.7 4.1 13 17.6 W 15 22 8 12 1005.6 - 0.0
26/11:00am 35.1 32.4 5.7 16 16.0 W 9 17 5 9 1006.1 - 0.0
26/10:30am 34.0 31.1 6.7 18 15.0 W 11 15 6 8 1006.4 - 0.0
26/10:00am 33.2 30.1 5.7 18 14.9 SW 11 17 6 9 1006.6 - 0.0
26/09:30am 32.0 28.8 5.2 18 14.3 SW 11 19 6 10 1006.8 - 0.0
26/09:00am 31.3 27.7 5.1 19 13.9 S 13 20 7 11 1007.0 1005.6 0.0
26/08:30am 30.5 27.0 3.5 18 13.9 SW 11 17 6 9 1007.0 - 0.0
26/06:30am 22.9 20.7 3.5 28 9.5 NNE 4 9 2 5 1006.9 - 0.0
26/06:00am 21.8 20.3 2.9 29 9.1 CALM 0 0 0 0 1006.3 1004.8 0.0
26/05:30am 22.2 20.0 3.6 29 9.1 ESE 4 7 2 4 1005.7 - 0.0
26/05:00am 21.5 17.6 1.3 26 9.4 NNE 11 13 6 7 1005.9 - 0.0
26/04:30am 23.9 21.2 2.7 25 10.3 ENE 6 17 3 9 1005.3 - 0.0
26/04:00am 26.0 21.7 1.2 20 11.9 SSE 13 19 7 10 1005.4 - 0.0
26/03:30am 26.5 21.3 0.0 17 12.4 WSW 17 19 9 10 1004.7 - 0.0
26/03:00am 27.2 22.9 0.8 18 12.7 SW 13 15 7 8 1004.8 1003.3 0.0
26/02:30am 28.5 22.6 -0.7 15 13.7 W 20 26 11 14 1005.1 - 0.0
26/02:00am 29.5 25.7 -0.4 14 14.3 SSW 9 13 5 7 1005.5 - 0.0
26/01:30am 31.1 26.5 -1.1 12 15.3 SSE 13 22 7 12 1005.6 - 0.0
26/01:00am 32.0 27.2 -0.1 13 15.6 SSW 15 30 8 16 1005.9 - 0.0
26/12:30am 29.7 26.2 5.3 21 12.9 ENE 13 19 7 10 1006.1 - 0.0
26/12:00am 32.9 27.2 -0.8 11 16.4 SW 19 28 10 15 1006.0 1004.5 0.0
 
Date/Time
EST
Temp
°C
App
Temp
°C
Dew
Point
Rel
Hum
%
Delta-T
°C
Wind Press
QNH
hPa
Press
MSL
hPa
Rain
since 9 am
mm
Dir
 
Spd
km/h
Gust
km/h
Spd
kts
Gust
kts
25/11:30pm 33.4 27.8 0.1 12 16.4 SW 19 28 10 15 1005.9 - 0.0
25/11:00pm 34.0 28.7 1.6 13 16.5 SSW 19 26 10 14 1005.7 - 0.0
25/10:30pm 34.9 29.3 1.0 11 17.2 SSW 20 30 11 16 1005.3 - 0.0
25/10:00pm 35.7 29.6 0.5 11 17.7 SSW 22 30 12 16 1004.8 - 0.0
25/09:30pm 36.3 29.9 0.9 11 18.0 SSW 24 32 13 17 1004.5 - 0.0
25/09:00pm 37.0 30.7 1.5 11 18.4 SSW 24 32 13 17 1004.7 1003.2 0.0
25/08:30pm 37.5 31.6 1.5 10 18.6 SSW 22 33 12 18 1004.6 - 0.0
25/08:00pm 38.1 31.2 2.7 11 18.7 SSW 28 33 15 18 1004.1 - 0.0
25/07:30pm 38.7 31.5 3.0 11 19.0 SSW 30 41 16 22 1003.6 - 0.0
25/07:00pm 39.5 32.8 3.5 11 19.4 SSW 28 48 15 26 1002.6 - 0.0
25/06:59pm 39.5 32.8 3.9 11 19.3 SSW 28 48 15 26 1002.5 - 0.0
25/06:30pm 39.3 33.6 6.7 13 18.4 SW 26 39 14 21 1002.1 - 0.0
25/06:00pm 39.7 33.9 7.9 14 18.4 SW 28 39 15 21 1001.6 1000.1 0.0
25/05:30pm 39.7 35.5 8.2 15 18.2 W 20 26 11 14 1001.6 - 0.0
25/05:00pm 40.1 34.9 7.1 13 18.8 WSW 24 33 13 18 1001.9 - 0.0
25/04:30pm 40.3 35.3 8.2 14 18.6 WSW 24 33 13 18 1002.0 - 0.0
25/04:00pm 39.9 37.4 11.0 17 17.4 WSW 15 32 8 17 1002.2 - 0.0
25/03:30pm 39.6 37.9 12.6 20 16.6 W 13 15 7 8 1002.6 - 0.0
25/03:12pm 38.4 34.0 12.8 21 15.7 W 28 50 15 27 1003.0 - 0.0
25/03:00pm 40.6 36.7 12.2 18 17.5 WSW 24 35 13 19 1003.1 1001.7 0.0
25/02:30pm 39.8 36.9 13.9 21 16.3 WSW 22 33 12 18 1003.2 - 0.0
25/02:00pm 39.5 37.3 14.4 22 15.8 WSW 19 32 10 17 1003.7 - 0.0
25/01:30pm 40.2 37.6 13.8 21 16.6 WNW 20 26 11 14 1004.2 - 0.0
25/01:00pm 40.7 40.1 15.6 23 16.2 WNW 13 32 7 17 1004.8 - 0.0
25/12:30pm 39.4 37.9 16.7 26 14.8 WSW 20 33 11 18 1005.3 - 0.0
25/12:00pm 39.0 38.9 17.0 27 14.4 W 13 30 7 16 1005.6 1004.1 0.0
25/11:30am 37.8 37.5 18.2 31 12.9 WNW 17 28 9 15 1006.0 - 0.0
25/11:00am 36.9 36.3 18.5 34 12.2 W 19 32 10 17 1006.4 - 0.0
25/10:30am 36.2 34.7 19.5 37 11.2 W 26 37 14 20 1006.7 - 0.0
25/10:00am 35.8 33.9 20.1 40 10.6 WNW 30 41 16 22 1006.9 - 0.0
25/09:30am 34.4 32.2 20.3 43 9.5 WNW 32 44 17 24 1007.2 - 0.0
25/09:00am 33.5 31.5 20.8 47 8.6 W 32 43 17 23 1007.4 1006.0 0.0
25/08:30am 33.1 31.2 21.4 50 8.0 WNW 33 48 18 26 1007.5 - 0.0
25/08:00am 31.9 30.7 21.5 54 7.1 NW 30 39 16 21 1007.3 - 0.0
25/07:30am 30.2 30.7 21.2 58 6.1 NNW 20 26 11 14 1007.4 - 0.0
25/07:00am 29.2 30.6 21.0 61 5.5 NNW 15 19 8 10 1007.3 - 0.0
25/06:30am 28.3 30.0 21.0 64 4.9 NW 13 17 7 9 1006.7 - 0.0
25/06:00am 27.8 29.0 20.7 65 4.7 NW 15 19 8 10 1006.3 1004.8 0.0
25/05:30am 28.4 29.5 20.4 62 5.3 W 15 19 8 10 1006.0 - 0.0
25/05:00am 28.5 29.2 20.4 61 5.4 NNW 17 24 9 13 1005.6 - 0.0
25/04:30am 28.9 28.9 20.2 59 5.8 N 20 28 11 15 1005.2 - 0.0
25/04:00am 28.1 29.3 20.6 63 5.0 N 15 19 8 10 1004.8 - 0.0
25/03:30am 27.9 29.5 20.7 65 4.8 N 13 15 7 8 1004.2 - 0.0
25/03:00am 28.1 29.4 20.9 65 4.8 N 15 17 8 9 1004.3 1002.9 0.0
25/02:30am 28.8 30.2 21.1 63 5.2 NNW 15 17 8 9 1004.5 - 0.0
25/02:00am 28.8 30.3 20.6 61 5.5 N 13 17 7 9 1004.7 - 0.0
25/01:30am 29.5 30.8 20.9 60 5.8 N 15 19 8 10 1004.9 - 0.0
25/01:00am 29.9 30.7 20.6 57 6.2 N 17 20 9 11 1005.1 - 0.0
25/12:30am 30.2 31.0 20.7 56 6.4 N 17 22 9 12 1005.3 - 0.0
25/12:00am 30.7 30.7 20.2 53 7.0 NNE 20 28 11 15 1005.6 1004.1 0.0
 
Date/Time
EST
Temp
°C
App
Temp
°C
Dew
Point
Rel
Hum
%
Delta-T
°C
Wind Press
QNH
hPa
Press
MSL
hPa
Rain
since 9 am
mm
Dir
 
Spd
km/h
Gust
km/h
Spd
kts
Gust
kts
24/11:30pm 31.7 31.6 19.5 48 8.1 NW 19 24 10 13 1005.6 - 0.0
24/11:00pm 31.2 31.5 19.6 50 7.7 NW 17 20 9 11 1005.5 - 0.0
24/10:30pm 31.4 31.7 19.6 49 7.8 N 17 22 9 12 1005.5 - 0.0
24/10:00pm 31.4 31.7 19.5 49 7.9 NNW 17 19 9 10 1005.2 - 0.0
24/09:30pm 31.9 31.7 18.6 45 8.7 NNW 17 24 9 13 1005.0 - 0.0
24/09:00pm 32.3 31.2 17.8 42 9.4 NNW 20 28 11 15 1004.6 1003.1 0.0
24/08:30pm 32.4 31.6 18.1 42 9.3 NW 19 24 10 13 1004.1 - 0.0
24/08:00pm 32.2 31.5 18.3 43 9.0 NNW 19 28 10 15 1003.5 - 0.0
24/07:30pm 32.8 29.5 18.3 42 9.5 NNW 33 44 18 24 1003.0 - 0.0
24/07:00pm 33.5 28.7 17.5 38 10.3 NNW 39 50 21 27 1002.8 - 0.0
24/06:30pm 35.6 31.8 17.3 33 11.9 N 33 52 18 28 1002.3 - 0.0
24/06:00pm 37.1 33.4 15.9 28 13.6 N 30 39 16 21 1001.9 1000.4 0.0
24/05:30pm 38.3 34.0 15.5 26 14.6 N 32 33 17 18 1001.6 - 0.0
24/05:00pm 38.9 35.9 14.9 24 15.2 NNW 24 33 13 18 1001.6 - 0.0
24/04:30pm 39.1 35.4 15.9 25 14.9 N 30 35 16 19 1001.6 - 0.0
24/04:00pm 39.2 36.0 16.4 26 14.8 N 28 35 15 19 1001.9 - 0.0
24/03:38pm 37.9 34.9 16.7 28 13.7 N 28 50 15 27 1002.1 - 0.0
24/03:30pm 39.7 37.6 14.7 23 15.9 W 19 24 10 13 1002.2 - 0.0
24/03:00pm 38.7 36.6 15.2 25 15.0 N 20 26 11 14 1002.3 1000.9 0.0
24/02:30pm 38.6 37.3 15.7 26 14.7 NNW 17 24 9 13 1002.4 - 0.0
24/02:00pm 38.3 38.6 15.9 26 14.4 WNW 9 26 5 14 1002.9 - 0.0
24/01:30pm 37.8 37.8 15.2 26 14.3 N 9 13 5 7 1003.3 - 0.0
24/01:00pm 37.4 35.6 16.1 28 13.7 NW 20 26 11 14 1003.7 - 0.0
24/12:30pm 36.6 36.4 15.6 28 13.4 W 11 19 6 10 1004.1 - 0.0
24/12:00pm 36.1 35.6 16.8 32 12.5 NW 15 28 8 15 1004.6 1003.1 0.0
24/11:30am 36.4 36.2 17.6 33 12.3 NNW 15 26 8 14 1004.9 - 0.0
24/11:00am 36.4 36.3 17.8 33 12.2 N 15 26 8 14 1005.3 - 0.0
24/10:30am 35.4 35.4 19.0 38 10.9 NNW 17 26 9 14 1005.6 - 0.0
24/10:00am 35.2 35.7 19.3 39 10.6 N 15 26 8 14 1005.8 - 0.0
24/09:30am 33.4 34.2 19.8 44 9.1 N 15 19 8 10 1006.0 - 0.0
24/09:00am 32.4 33.3 20.0 48 8.3 NNW 15 20 8 11 1005.9 1004.4 0.0
24/08:30am 31.4 31.9 20.0 50 7.6 NNW 17 22 9 12 1005.7 - 0.0
24/08:00am 30.2 31.6 20.3 55 6.6 N 13 17 7 9 1005.6 - 0.0
24/07:30am 29.4 30.1 20.4 58 6.0 N 17 20 9 11 1005.5 - 0.0
24/07:00am 27.9 29.4 20.5 64 4.9 NNE 13 15 7 8 1005.1 - 0.0
24/06:30am 26.0 27.7 20.1 70 3.9 NE 11 13 6 7 1004.9 - 0.0
24/06:00am 25.0 26.5 19.8 73 3.4 NE 11 13 6 7 1004.7 1003.2 0.0
24/05:30am 24.5 25.8 19.4 73 3.3 NE 11 11 6 6 1004.5 - 0.0
24/05:00am 24.6 25.9 19.2 72 3.5 ENE 11 11 6 6 1004.2 - 0.0
24/04:30am 24.9 26.9 19.2 70 3.7 E 7 9 4 5 1003.9 - 0.0
24/04:00am 25.6 26.4 19.1 67 4.2 ENE 13 15 7 8 1004.0 - 0.0
24/03:30am 25.9 26.6 18.8 65 4.6 NE 13 15 7 8 1003.7 - 0.0
24/03:00am 26.4 27.0 18.6 62 5.0 NE 13 15 7 8 1003.5 1002.1 0.0
24/02:30am 27.0 27.2 18.6 60 5.4 NE 15 17 8 9 1003.6 - 0.0
24/02:00am 27.4 27.5 18.4 58 5.8 NE 15 17 8 9 1003.5 - 0.0
24/01:30am 27.4 27.2 17.5 54 6.3 NE 15 17 8 9 1003.6 - 0.0
24/01:00am 27.6 26.8 16.2 49 7.1 NE 15 17 8 9 1003.9 - 0.0
24/12:30am 28.3 27.3 15.5 45 7.9 NE 15 17 8 9 1004.0 - 0.0
24/12:00am 29.4 27.9 15.4 42 8.7 NE 17 19 9 10 1004.3 1002.9 0.0
 
Date/Time
EST
Temp
°C
App
Temp
°C
Dew
Point
Rel
Hum
%
Delta-T
°C
Wind Press
QNH
hPa
Press
MSL
hPa
Rain
since 9 am
mm
Dir
 
Spd
km/h
Gust
km/h
Spd
kts
Gust
kts
23/11:30pm 28.4 26.9 14.2 41 8.6 E 15 19 8 10 1004.5 - 0.0
23/11:00pm 29.7 28.5 14.1 38 9.5 SE 13 13 7 7 1004.2 - 0.0
23/10:30pm 29.9 29.2 14.4 38 9.5 ESE 11 13 6 7 1004.2 - 0.0
23/10:00pm 29.8 30.2 16.3 44 8.5 ESE 9 13 5 7 1004.0 - 0.0
23/09:30pm 30.8 31.3 15.0 38 9.8 SSE 6 7 3 4 1003.6 - 0.0
23/09:00pm 31.2 32.1 16.2 40 9.5 S 6 6 3 3 1003.3 1001.9 0.0
23/08:30pm 32.5 32.7 14.8 34 11.0 S 7 7 4 4 1003.1 - 0.0
23/08:00pm 33.2 32.9 14.3 32 11.7 S 9 11 5 6 1002.7 - 0.0
23/07:30pm 34.2 32.8 13.5 28 12.7 S 13 17 7 9 1002.4 - 0.0
23/07:00pm 35.1 33.9 12.8 26 13.6 SSW 11 13 6 7 1002.1 - 0.0
23/06:30pm 35.8 33.7 12.5 24 14.1 S 15 19 8 10 1001.7 - 0.0
23/06:00pm 36.2 33.1 12.1 23 14.6 SSW 20 30 11 16 1001.4 999.9 0.0
23/05:30pm 36.8 34.9 11.9 22 15.0 SSW 13 19 7 10 1001.3 - 0.0
23/05:00pm 36.5 34.6 11.9 22 14.8 SSE 13 19 7 10 1001.2 - 0.0
23/04:30pm 36.4 34.7 12.5 23 14.5 SE 13 22 7 12 1001.2 - 0.0
23/04:00pm 37.4 35.6 12.1 22 15.4 SW 13 20 7 11 1001.3 - 0.0
23/03:30pm 35.6 34.0 13.8 27 13.5 SE 15 22 8 12 1001.4 - 0.0
23/03:00pm 37.5 36.7 14.0 24 14.7 NW 11 15 6 8 1001.6 1000.1 0.0
23/02:30pm 36.0 35.3 13.1 25 14.0 SSE 9 17 5 9 1001.9 - 0.0

Other Formats:

Comma delimited format used in spreadsheet applications
http://www.bom.gov.au/fwo/IDQ60801/IDQ60801.94346.axf

JavaScript Object Notation format (JSON) in row-major order
http://www.bom.gov.au/fwo/IDQ60801/IDQ60801.94346.json